sensor_id;sensor_type;location;lat;lon;timestamp;P1;durP1;ratioP1;P2;durP2;ratioP2
24223;SDS011;12359;49.716;9.212;2022-10-16T00:01:28;5.30;;;3.75;;
24223;SDS011;12359;49.716;9.212;2022-10-16T00:03:55;6.40;;;3.83;;
24223;SDS011;12359;49.716;9.212;2022-10-16T00:06:22;7.97;;;3.58;;
24223;SDS011;12359;49.716;9.212;2022-10-16T00:08:48;5.28;;;3.10;;
24223;SDS011;12359;49.716;9.212;2022-10-16T00:11:15;2.92;;;2.38;;
24223;SDS011;12359;49.716;9.212;2022-10-16T00:13:43;1.60;;;1.50;;
24223;SDS011;12359;49.716;9.212;2022-10-16T00:16:10;1.90;;;1.80;;
24223;SDS011;12359;49.716;9.212;2022-10-16T00:18:37;2.13;;;1.58;;
24223;SDS011;12359;49.716;9.212;2022-10-16T00:21:05;1.73;;;1.60;;
24223;SDS011;12359;49.716;9.212;2022-10-16T00:23:32;2.78;;;1.85;;
24223;SDS011;12359;49.716;9.212;2022-10-16T00:25:59;2.33;;;1.50;;
24223;SDS011;12359;49.716;9.212;2022-10-16T00:28:26;3.03;;;2.10;;
24223;SDS011;12359;49.716;9.212;2022-10-16T00:30:52;4.28;;;1.95;;
24223;SDS011;12359;49.716;9.212;2022-10-16T00:33:18;2.53;;;1.58;;
24223;SDS011;12359;49.716;9.212;2022-10-16T00:35:44;2.38;;;1.48;;
24223;SDS011;12359;49.716;9.212;2022-10-16T00:38:10;3.70;;;1.85;;
24223;SDS011;12359;49.716;9.212;2022-10-16T00:40:36;4.10;;;1.90;;
24223;SDS011;12359;49.716;9.212;2022-10-16T00:43:02;2.03;;;1.63;;
24223;SDS011;12359;49.716;9.212;2022-10-16T00:45:29;2.47;;;2.13;;
24223;SDS011;12359;49.716;9.212;2022-10-16T00:47:55;2.55;;;1.75;;
24223;SDS011;12359;49.716;9.212;2022-10-16T00:50:24;5.38;;;2.67;;
24223;SDS011;12359;49.716;9.212;2022-10-16T00:53:00;5.93;;;2.38;;
24223;SDS011;12359;49.716;9.212;2022-10-16T00:55:27;2.55;;;2.35;;
24223;SDS011;12359;49.716;9.212;2022-10-16T00:57:55;2.63;;;2.33;;
24223;SDS011;12359;49.716;9.212;2022-10-16T01:00:23;1.92;;;1.77;;
24223;SDS011;12359;49.716;9.212;2022-10-16T01:02:57;3.95;;;2.40;;
24223;SDS011;12359;49.716;9.212;2022-10-16T01:05:50;1.80;;;1.70;;
24223;SDS011;12359;49.716;9.212;2022-10-16T01:08:21;1.70;;;1.60;;
24223;SDS011;12359;49.716;9.212;2022-10-16T01:10:57;2.13;;;1.75;;
24223;SDS011;12359;49.716;9.212;2022-10-16T01:13:38;3.28;;;1.85;;
24223;SDS011;12359;49.716;9.212;2022-10-16T01:18:43;1.75;;;1.52;;
24223;SDS011;12359;49.716;9.212;2022-10-16T01:21:22;3.28;;;1.90;;
24223;SDS011;12359;49.716;9.212;2022-10-16T01:29:44;1.35;;;1.25;;
24223;SDS011;12359;49.716;9.212;2022-10-16T01:35:32;3.13;;;2.25;;
24223;SDS011;12359;49.716;9.212;2022-10-16T01:41:11;2.15;;;2.05;;
24223;SDS011;12359;49.716;9.212;2022-10-16T01:43:44;4.18;;;1.73;;
24223;SDS011;12359;49.716;9.212;2022-10-16T01:46:18;2.75;;;2.03;;
24223;SDS011;12359;49.716;9.212;2022-10-16T01:48:46;3.50;;;2.47;;
24223;SDS011;12359;49.716;9.212;2022-10-16T01:51:14;1.95;;;1.65;;
24223;SDS011;12359;49.716;9.212;2022-10-16T01:53:42;2.05;;;1.60;;
24223;SDS011;12359;49.716;9.212;2022-10-16T01:56:12;2.15;;;1.80;;
24223;SDS011;12359;49.716;9.212;2022-10-16T01:58:42;3.72;;;1.60;;
24223;SDS011;12359;49.716;9.212;2022-10-16T02:01:13;2.22;;;1.48;;
24223;SDS011;12359;49.716;9.212;2022-10-16T02:03:42;3.33;;;1.70;;
24223;SDS011;12359;49.716;9.212;2022-10-16T02:06:09;3.22;;;1.40;;
24223;SDS011;12359;49.716;9.212;2022-10-16T02:08:35;6.15;;;1.77;;
24223;SDS011;12359;49.716;9.212;2022-10-16T02:11:01;1.80;;;1.40;;
24223;SDS011;12359;49.716;9.212;2022-10-16T02:13:33;3.33;;;1.30;;
24223;SDS011;12359;49.716;9.212;2022-10-16T02:16:02;2.63;;;1.30;;
24223;SDS011;12359;49.716;9.212;2022-10-16T02:18:30;1.77;;;1.42;;
24223;SDS011;12359;49.716;9.212;2022-10-16T02:21:01;1.50;;;1.40;;
24223;SDS011;12359;49.716;9.212;2022-10-16T02:23:40;2.33;;;1.65;;
24223;SDS011;12359;49.716;9.212;2022-10-16T02:26:13;2.85;;;1.63;;
24223;SDS011;12359;49.716;9.212;2022-10-16T02:28:45;2.03;;;1.65;;
24223;SDS011;12359;49.716;9.212;2022-10-16T02:31:18;2.53;;;1.98;;
24223;SDS011;12359;49.716;9.212;2022-10-16T02:33:51;2.90;;;1.63;;
24223;SDS011;12359;49.716;9.212;2022-10-16T02:36:19;2.03;;;1.83;;
24223;SDS011;12359;49.716;9.212;2022-10-16T02:38:46;3.08;;;2.03;;
24223;SDS011;12359;49.716;9.212;2022-10-16T02:41:12;1.60;;;1.50;;
24223;SDS011;12359;49.716;9.212;2022-10-16T02:43:39;3.15;;;1.75;;
24223;SDS011;12359;49.716;9.212;2022-10-16T02:46:04;2.75;;;1.65;;
24223;SDS011;12359;49.716;9.212;2022-10-16T02:48:31;2.25;;;1.30;;
24223;SDS011;12359;49.716;9.212;2022-10-16T02:50:56;2.33;;;1.33;;
24223;SDS011;12359;49.716;9.212;2022-10-16T02:53:22;5.35;;;1.83;;
24223;SDS011;12359;49.716;9.212;2022-10-16T02:55:48;6.38;;;1.70;;
24223;SDS011;12359;49.716;9.212;2022-10-16T02:58:13;2.08;;;1.85;;
24223;SDS011;12359;49.716;9.212;2022-10-16T03:00:39;2.60;;;1.45;;
24223;SDS011;12359;49.716;9.212;2022-10-16T03:03:05;4.05;;;1.50;;
24223;SDS011;12359;49.716;9.212;2022-10-16T03:05:30;4.57;;;1.60;;
24223;SDS011;12359;49.716;9.212;2022-10-16T03:07:56;6.88;;;2.03;;
24223;SDS011;12359;49.716;9.212;2022-10-16T03:10:25;9.63;;;1.80;;
24223;SDS011;12359;49.716;9.212;2022-10-16T03:12:50;3.90;;;1.98;;
24223;SDS011;12359;49.716;9.212;2022-10-16T03:15:16;1.63;;;1.52;;
24223;SDS011;12359;49.716;9.212;2022-10-16T03:17:42;2.63;;;1.75;;
24223;SDS011;12359;49.716;9.212;2022-10-16T03:20:08;1.75;;;1.52;;
24223;SDS011;12359;49.716;9.212;2022-10-16T03:22:34;3.17;;;1.80;;
24223;SDS011;12359;49.716;9.212;2022-10-16T03:25:00;4.32;;;1.13;;
24223;SDS011;12359;49.716;9.212;2022-10-16T03:27:25;1.40;;;0.90;;
24223;SDS011;12359;49.716;9.212;2022-10-16T03:29:51;2.42;;;1.45;;
24223;SDS011;12359;49.716;9.212;2022-10-16T03:32:17;14.20;;;1.55;;
24223;SDS011;12359;49.716;9.212;2022-10-16T03:34:43;2.80;;;1.40;;
24223;SDS011;12359;49.716;9.212;2022-10-16T03:37:09;0.88;;;0.88;;
24223;SDS011;12359;49.716;9.212;2022-10-16T03:39:34;5.82;;;1.50;;
24223;SDS011;12359;49.716;9.212;2022-10-16T03:42:00;9.43;;;1.42;;
24223;SDS011;12359;49.716;9.212;2022-10-16T03:44:26;1.52;;;0.90;;
24223;SDS011;12359;49.716;9.212;2022-10-16T03:46:51;2.30;;;1.35;;
24223;SDS011;12359;49.716;9.212;2022-10-16T03:49:17;4.10;;;1.65;;
24223;SDS011;12359;49.716;9.212;2022-10-16T03:51:43;3.10;;;1.67;;
24223;SDS011;12359;49.716;9.212;2022-10-16T03:54:09;4.70;;;1.83;;
24223;SDS011;12359;49.716;9.212;2022-10-16T03:56:35;5.53;;;1.48;;
24223;SDS011;12359;49.716;9.212;2022-10-16T03:59:01;7.20;;;1.95;;
24223;SDS011;12359;49.716;9.212;2022-10-16T04:01:26;2.50;;;1.50;;
24223;SDS011;12359;49.716;9.212;2022-10-16T04:03:52;1.95;;;1.75;;
24223;SDS011;12359;49.716;9.212;2022-10-16T04:06:18;4.57;;;1.63;;
24223;SDS011;12359;49.716;9.212;2022-10-16T04:08:43;2.17;;;1.50;;
24223;SDS011;12359;49.716;9.212;2022-10-16T04:11:09;4.13;;;1.92;;
24223;SDS011;12359;49.716;9.212;2022-10-16T04:13:35;4.45;;;1.63;;
24223;SDS011;12359;49.716;9.212;2022-10-16T04:16:01;3.83;;;1.55;;
24223;SDS011;12359;49.716;9.212;2022-10-16T04:18:27;3.08;;;1.95;;
24223;SDS011;12359;49.716;9.212;2022-10-16T04:20:53;1.65;;;1.55;;
24223;SDS011;12359;49.716;9.212;2022-10-16T04:23:19;4.50;;;1.88;;
24223;SDS011;12359;49.716;9.212;2022-10-16T04:25:45;2.78;;;1.40;;
24223;SDS011;12359;49.716;9.212;2022-10-16T04:28:10;2.83;;;1.73;;
24223;SDS011;12359;49.716;9.212;2022-10-16T04:30:37;3.65;;;1.48;;
24223;SDS011;12359;49.716;9.212;2022-10-16T04:33:04;9.27;;;2.58;;
24223;SDS011;12359;49.716;9.212;2022-10-16T04:35:29;2.92;;;2.15;;
24223;SDS011;12359;49.716;9.212;2022-10-16T04:37:57;6.30;;;1.77;;
24223;SDS011;12359;49.716;9.212;2022-10-16T04:40:23;1.50;;;1.35;;
24223;SDS011;12359;49.716;9.212;2022-10-16T04:42:49;2.90;;;1.45;;
24223;SDS011;12359;49.716;9.212;2022-10-16T04:45:14;3.75;;;1.70;;
24223;SDS011;12359;49.716;9.212;2022-10-16T04:47:40;4.43;;;1.90;;
24223;SDS011;12359;49.716;9.212;2022-10-16T04:50:06;9.38;;;1.88;;
24223;SDS011;12359;49.716;9.212;2022-10-16T04:52:32;4.80;;;2.22;;
24223;SDS011;12359;49.716;9.212;2022-10-16T04:54:58;4.63;;;1.60;;
24223;SDS011;12359;49.716;9.212;2022-10-16T04:57:27;3.90;;;2.13;;
24223;SDS011;12359;49.716;9.212;2022-10-16T04:59:53;6.28;;;2.15;;
24223;SDS011;12359;49.716;9.212;2022-10-16T05:02:19;3.95;;;2.03;;
24223;SDS011;12359;49.716;9.212;2022-10-16T05:04:45;2.88;;;1.92;;
24223;SDS011;12359;49.716;9.212;2022-10-16T05:07:10;2.17;;;1.67;;
24223;SDS011;12359;49.716;9.212;2022-10-16T05:09:36;5.70;;;2.30;;
24223;SDS011;12359;49.716;9.212;2022-10-16T05:12:02;2.63;;;1.80;;
24223;SDS011;12359;49.716;9.212;2022-10-16T05:14:28;4.28;;;1.92;;
24223;SDS011;12359;49.716;9.212;2022-10-16T05:16:54;2.80;;;1.90;;
24223;SDS011;12359;49.716;9.212;2022-10-16T05:19:20;8.02;;;2.03;;
24223;SDS011;12359;49.716;9.212;2022-10-16T05:21:45;6.30;;;2.10;;
24223;SDS011;12359;49.716;9.212;2022-10-16T05:24:11;4.18;;;2.10;;
24223;SDS011;12359;49.716;9.212;2022-10-16T05:26:37;11.63;;;2.15;;
24223;SDS011;12359;49.716;9.212;2022-10-16T05:29:02;2.75;;;2.28;;
24223;SDS011;12359;49.716;9.212;2022-10-16T05:31:28;5.78;;;2.05;;
24223;SDS011;12359;49.716;9.212;2022-10-16T05:33:58;3.33;;;2.55;;
24223;SDS011;12359;49.716;9.212;2022-10-16T05:36:25;6.57;;;2.67;;
24223;SDS011;12359;49.716;9.212;2022-10-16T05:38:51;3.78;;;2.80;;
24223;SDS011;12359;49.716;9.212;2022-10-16T05:41:17;6.00;;;2.30;;
24223;SDS011;12359;49.716;9.212;2022-10-16T05:43:47;3.33;;;2.40;;
24223;SDS011;12359;49.716;9.212;2022-10-16T05:46:13;2.67;;;1.65;;
24223;SDS011;12359;49.716;9.212;2022-10-16T05:48:39;4.35;;;2.85;;
24223;SDS011;12359;49.716;9.212;2022-10-16T05:51:06;5.50;;;3.42;;
24223;SDS011;12359;49.716;9.212;2022-10-16T05:53:34;3.28;;;2.55;;
24223;SDS011;12359;49.716;9.212;2022-10-16T05:56:02;4.30;;;2.45;;
24223;SDS011;12359;49.716;9.212;2022-10-16T05:58:29;3.78;;;2.33;;
24223;SDS011;12359;49.716;9.212;2022-10-16T06:01:04;3.75;;;1.98;;
24223;SDS011;12359;49.716;9.212;2022-10-16T06:03:32;4.40;;;2.47;;
24223;SDS011;12359;49.716;9.212;2022-10-16T06:05:58;4.57;;;1.95;;
24223;SDS011;12359;49.716;9.212;2022-10-16T06:08:24;2.28;;;1.98;;
24223;SDS011;12359;49.716;9.212;2022-10-16T06:11:12;5.55;;;2.25;;
24223;SDS011;12359;49.716;9.212;2022-10-16T06:13:37;2.70;;;2.22;;
24223;SDS011;12359;49.716;9.212;2022-10-16T06:16:06;2.75;;;2.30;;
24223;SDS011;12359;49.716;9.212;2022-10-16T06:18:32;2.67;;;2.38;;
24223;SDS011;12359;49.716;9.212;2022-10-16T06:20:58;3.67;;;2.70;;
24223;SDS011;12359;49.716;9.212;2022-10-16T06:23:24;6.88;;;2.80;;
24223;SDS011;12359;49.716;9.212;2022-10-16T06:25:50;6.63;;;2.65;;
24223;SDS011;12359;49.716;9.212;2022-10-16T06:28:16;5.35;;;3.10;;
24223;SDS011;12359;49.716;9.212;2022-10-16T06:30:42;6.43;;;2.65;;
24223;SDS011;12359;49.716;9.212;2022-10-16T06:33:11;3.47;;;3.03;;
24223;SDS011;12359;49.716;9.212;2022-10-16T06:35:37;5.25;;;2.97;;
24223;SDS011;12359;49.716;9.212;2022-10-16T06:38:02;3.47;;;2.78;;
24223;SDS011;12359;49.716;9.212;2022-10-16T06:40:28;6.72;;;2.97;;
24223;SDS011;12359;49.716;9.212;2022-10-16T06:42:57;3.75;;;3.10;;
24223;SDS011;12359;49.716;9.212;2022-10-16T06:45:22;3.90;;;3.35;;
24223;SDS011;12359;49.716;9.212;2022-10-16T06:47:48;6.57;;;2.75;;
24223;SDS011;12359;49.716;9.212;2022-10-16T06:50:14;3.40;;;2.92;;
24223;SDS011;12359;49.716;9.212;2022-10-16T06:52:39;3.83;;;2.53;;
24223;SDS011;12359;49.716;9.212;2022-10-16T06:55:05;3.10;;;2.60;;
24223;SDS011;12359;49.716;9.212;2022-10-16T06:57:31;5.32;;;2.92;;
24223;SDS011;12359;49.716;9.212;2022-10-16T06:59:57;6.20;;;2.97;;
24223;SDS011;12359;49.716;9.212;2022-10-16T07:02:23;4.40;;;2.05;;
24223;SDS011;12359;49.716;9.212;2022-10-16T07:04:48;3.63;;;2.65;;
24223;SDS011;12359;49.716;9.212;2022-10-16T07:07:14;3.22;;;2.50;;
24223;SDS011;12359;49.716;9.212;2022-10-16T07:09:40;2.80;;;1.90;;
24223;SDS011;12359;49.716;9.212;2022-10-16T07:12:05;4.18;;;1.90;;
24223;SDS011;12359;49.716;9.212;2022-10-16T07:14:31;3.30;;;2.40;;
24223;SDS011;12359;49.716;9.212;2022-10-16T07:16:57;3.67;;;2.40;;
24223;SDS011;12359;49.716;9.212;2022-10-16T07:19:22;6.72;;;3.17;;
24223;SDS011;12359;49.716;9.212;2022-10-16T07:21:48;4.97;;;2.15;;
24223;SDS011;12359;49.716;9.212;2022-10-16T07:24:15;2.78;;;2.35;;
24223;SDS011;12359;49.716;9.212;2022-10-16T07:26:42;6.40;;;2.72;;
24223;SDS011;12359;49.716;9.212;2022-10-16T07:29:12;4.97;;;2.38;;
24223;SDS011;12359;49.716;9.212;2022-10-16T07:31:46;2.22;;;1.80;;
24223;SDS011;12359;49.716;9.212;2022-10-16T07:34:13;2.33;;;2.03;;
24223;SDS011;12359;49.716;9.212;2022-10-16T07:36:40;5.25;;;2.08;;
24223;SDS011;12359;49.716;9.212;2022-10-16T07:39:06;2.08;;;1.88;;
24223;SDS011;12359;49.716;9.212;2022-10-16T07:41:31;3.00;;;2.15;;
24223;SDS011;12359;49.716;9.212;2022-10-16T07:44:01;1.85;;;1.60;;
24223;SDS011;12359;49.716;9.212;2022-10-16T07:46:27;2.10;;;1.63;;
24223;SDS011;12359;49.716;9.212;2022-10-16T07:48:53;5.40;;;2.03;;
24223;SDS011;12359;49.716;9.212;2022-10-16T07:51:20;2.85;;;2.00;;
24223;SDS011;12359;49.716;9.212;2022-10-16T07:53:47;3.67;;;2.15;;
24223;SDS011;12359;49.716;9.212;2022-10-16T07:56:14;2.25;;;1.80;;
24223;SDS011;12359;49.716;9.212;2022-10-16T07:58:41;4.18;;;2.15;;
24223;SDS011;12359;49.716;9.212;2022-10-16T08:01:11;3.42;;;2.10;;
24223;SDS011;12359;49.716;9.212;2022-10-16T08:03:43;4.40;;;1.88;;
24223;SDS011;12359;49.716;9.212;2022-10-16T08:06:16;2.42;;;1.90;;
24223;SDS011;12359;49.716;9.212;2022-10-16T08:08:42;2.53;;;2.10;;
24223;SDS011;12359;49.716;9.212;2022-10-16T08:11:08;2.78;;;2.17;;
24223;SDS011;12359;49.716;9.212;2022-10-16T08:13:34;2.05;;;1.85;;
24223;SDS011;12359;49.716;9.212;2022-10-16T08:16:00;2.20;;;1.50;;
24223;SDS011;12359;49.716;9.212;2022-10-16T08:18:26;3.58;;;1.77;;
24223;SDS011;12359;49.716;9.212;2022-10-16T08:20:55;1.90;;;1.35;;
24223;SDS011;12359;49.716;9.212;2022-10-16T08:23:23;3.58;;;2.03;;
24223;SDS011;12359;49.716;9.212;2022-10-16T08:25:50;3.38;;;2.30;;
24223;SDS011;12359;49.716;9.212;2022-10-16T08:28:18;3.67;;;2.92;;
24223;SDS011;12359;49.716;9.212;2022-10-16T08:30:44;3.55;;;1.90;;
24223;SDS011;12359;49.716;9.212;2022-10-16T08:33:10;3.60;;;2.00;;
24223;SDS011;12359;49.716;9.212;2022-10-16T08:35:36;7.30;;;1.92;;
24223;SDS011;12359;49.716;9.212;2022-10-16T08:38:05;2.65;;;1.48;;
24223;SDS011;12359;49.716;9.212;2022-10-16T08:40:32;6.78;;;2.13;;
24223;SDS011;12359;49.716;9.212;2022-10-16T08:45:57;4.13;;;1.85;;
24223;SDS011;12359;49.716;9.212;2022-10-16T08:48:46;2.70;;;1.92;;
24223;SDS011;12359;49.716;9.212;2022-10-16T08:53:56;3.20;;;1.60;;
24223;SDS011;12359;49.716;9.212;2022-10-16T08:56:24;8.82;;;2.50;;
24223;SDS011;12359;49.716;9.212;2022-10-16T08:58:51;7.90;;;2.33;;
24223;SDS011;12359;49.716;9.212;2022-10-16T09:01:19;4.05;;;2.45;;
24223;SDS011;12359;49.716;9.212;2022-10-16T09:06:29;6.45;;;2.78;;
24223;SDS011;12359;49.716;9.212;2022-10-16T09:12:10;8.02;;;2.42;;
24223;SDS011;12359;49.716;9.212;2022-10-16T09:14:49;6.22;;;2.95;;
24223;SDS011;12359;49.716;9.212;2022-10-16T09:17:37;4.70;;;2.15;;
24223;SDS011;12359;49.716;9.212;2022-10-16T09:20:17;2.95;;;2.63;;
24223;SDS011;12359;49.716;9.212;2022-10-16T09:22:44;3.75;;;2.67;;
24223;SDS011;12359;49.716;9.212;2022-10-16T09:25:12;2.67;;;2.42;;
24223;SDS011;12359;49.716;9.212;2022-10-16T09:27:47;3.78;;;2.60;;
24223;SDS011;12359;49.716;9.212;2022-10-16T09:30:18;5.80;;;3.28;;
24223;SDS011;12359;49.716;9.212;2022-10-16T09:32:47;4.35;;;3.17;;
24223;SDS011;12359;49.716;9.212;2022-10-16T09:35:19;4.60;;;3.20;;
24223;SDS011;12359;49.716;9.212;2022-10-16T09:37:51;5.28;;;3.22;;
24223;SDS011;12359;49.716;9.212;2022-10-16T09:40:30;3.75;;;3.25;;
24223;SDS011;12359;49.716;9.212;2022-10-16T09:43:38;7.32;;;3.67;;
24223;SDS011;12359;49.716;9.212;2022-10-16T09:46:00;4.10;;;2.95;;
24223;SDS011;12359;49.716;9.212;2022-10-16T09:48:33;6.55;;;3.65;;
24223;SDS011;12359;49.716;9.212;2022-10-16T09:51:16;5.13;;;4.10;;
24223;SDS011;12359;49.716;9.212;2022-10-16T09:56:29;5.68;;;4.43;;
24223;SDS011;12359;49.716;9.212;2022-10-16T09:59:11;6.93;;;3.80;;
24223;SDS011;12359;49.716;9.212;2022-10-16T10:01:49;4.65;;;3.70;;
24223;SDS011;12359;49.716;9.212;2022-10-16T10:04:20;8.60;;;4.43;;
24223;SDS011;12359;49.716;9.212;2022-10-16T10:06:53;7.32;;;5.70;;
24223;SDS011;12359;49.716;9.212;2022-10-16T10:17:02;3.75;;;2.35;;
24223;SDS011;12359;49.716;9.212;2022-10-16T10:19:47;4.13;;;2.72;;
24223;SDS011;12359;49.716;9.212;2022-10-16T10:22:58;2.28;;;2.15;;
24223;SDS011;12359;49.716;9.212;2022-10-16T10:30:24;3.67;;;2.25;;
24223;SDS011;12359;49.716;9.212;2022-10-16T10:35:48;2.83;;;2.30;;
24223;SDS011;12359;49.716;9.212;2022-10-16T10:38:30;4.25;;;1.73;;
24223;SDS011;12359;49.716;9.212;2022-10-16T10:46:51;9.10;;;2.72;;
24223;SDS011;12359;49.716;9.212;2022-10-16T11:05:57;1.88;;;1.27;;
24223;SDS011;12359;49.716;9.212;2022-10-16T11:11:00;1.98;;;1.02;;
24223;SDS011;12359;49.716;9.212;2022-10-16T11:16:18;2.38;;;0.88;;
24223;SDS011;12359;49.716;9.212;2022-10-16T11:19:11;1.20;;;1.10;;
24223;SDS011;12359;49.716;9.212;2022-10-16T11:22:19;2.28;;;0.80;;
24223;SDS011;12359;49.716;9.212;2022-10-16T11:25:00;2.60;;;1.00;;
24223;SDS011;12359;49.716;9.212;2022-10-16T11:30:25;0.60;;;0.60;;
24223;SDS011;12359;49.716;9.212;2022-10-16T11:35:38;7.18;;;1.30;;
24223;SDS011;12359;49.716;9.212;2022-10-16T11:38:33;1.70;;;1.00;;
24223;SDS011;12359;49.716;9.212;2022-10-16T11:41:26;2.58;;;1.35;;
24223;SDS011;12359;49.716;9.212;2022-10-16T11:46:38;2.53;;;1.13;;
24223;SDS011;12359;49.716;9.212;2022-10-16T11:49:10;2.05;;;1.00;;
24223;SDS011;12359;49.716;9.212;2022-10-16T11:51:42;1.65;;;1.38;;
24223;SDS011;12359;49.716;9.212;2022-10-16T11:56:57;2.22;;;0.90;;
24223;SDS011;12359;49.716;9.212;2022-10-16T12:01:58;1.70;;;1.42;;
24223;SDS011;12359;49.716;9.212;2022-10-16T12:04:45;2.28;;;1.23;;
24223;SDS011;12359;49.716;9.212;2022-10-16T12:07:19;2.55;;;1.35;;
24223;SDS011;12359;49.716;9.212;2022-10-16T12:09:51;2.42;;;1.13;;
24223;SDS011;12359;49.716;9.212;2022-10-16T12:15:02;1.65;;;1.25;;
24223;SDS011;12359;49.716;9.212;2022-10-16T12:17:43;2.33;;;1.63;;
24223;SDS011;12359;49.716;9.212;2022-10-16T12:22:41;6.55;;;1.85;;
24223;SDS011;12359;49.716;9.212;2022-10-16T12:27:53;1.27;;;1.00;;
24223;SDS011;12359;49.716;9.212;2022-10-16T12:30:42;1.42;;;0.93;;
24223;SDS011;12359;49.716;9.212;2022-10-16T12:35:51;3.73;;;1.70;;
24223;SDS011;12359;49.716;9.212;2022-10-16T12:38:25;1.20;;;1.13;;
24223;SDS011;12359;49.716;9.212;2022-10-16T12:43:28;1.95;;;1.30;;
24223;SDS011;12359;49.716;9.212;2022-10-16T12:46:03;6.18;;;1.67;;
24223;SDS011;12359;49.716;9.212;2022-10-16T12:48:32;7.10;;;1.52;;
24223;SDS011;12359;49.716;9.212;2022-10-16T12:51:11;1.92;;;1.17;;
24223;SDS011;12359;49.716;9.212;2022-10-16T12:53:46;2.85;;;1.48;;
24223;SDS011;12359;49.716;9.212;2022-10-16T13:01:52;3.90;;;1.30;;
24223;SDS011;12359;49.716;9.212;2022-10-16T13:07:15;1.60;;;1.30;;
24223;SDS011;12359;49.716;9.212;2022-10-16T13:17:58;4.03;;;1.02;;
24223;SDS011;12359;49.716;9.212;2022-10-16T13:23:23;4.00;;;1.45;;
24223;SDS011;12359;49.716;9.212;2022-10-16T13:28:28;2.80;;;1.63;;
24223;SDS011;12359;49.716;9.212;2022-10-16T13:30:57;10.10;;;2.33;;
24223;SDS011;12359;49.716;9.212;2022-10-16T13:33:33;6.03;;;2.20;;
24223;SDS011;12359;49.716;9.212;2022-10-16T13:36:01;1.88;;;1.45;;
24223;SDS011;12359;49.716;9.212;2022-10-16T13:38:29;3.83;;;1.30;;
24223;SDS011;12359;49.716;9.212;2022-10-16T13:40:57;1.80;;;1.70;;
24223;SDS011;12359;49.716;9.212;2022-10-16T13:43:37;1.88;;;1.40;;
24223;SDS011;12359;49.716;9.212;2022-10-16T13:46:14;3.70;;;1.40;;
24223;SDS011;12359;49.716;9.212;2022-10-16T13:48:41;11.25;;;2.10;;
24223;SDS011;12359;49.716;9.212;2022-10-16T13:51:17;3.67;;;2.28;;
24223;SDS011;12359;49.716;9.212;2022-10-16T13:53:44;1.88;;;1.70;;
24223;SDS011;12359;49.716;9.212;2022-10-16T13:56:11;2.38;;;1.45;;
24223;SDS011;12359;49.716;9.212;2022-10-16T13:58:39;1.42;;;1.33;;
24223;SDS011;12359;49.716;9.212;2022-10-16T14:01:06;3.92;;;1.50;;
24223;SDS011;12359;49.716;9.212;2022-10-16T14:03:49;8.27;;;2.22;;
24223;SDS011;12359;49.716;9.212;2022-10-16T14:06:17;5.80;;;2.05;;
24223;SDS011;12359;49.716;9.212;2022-10-16T14:08:50;1.77;;;1.67;;
24223;SDS011;12359;49.716;9.212;2022-10-16T14:11:48;3.90;;;1.58;;
24223;SDS011;12359;49.716;9.212;2022-10-16T14:14:20;3.70;;;1.80;;
24223;SDS011;12359;49.716;9.212;2022-10-16T14:16:47;2.88;;;1.77;;
24223;SDS011;12359;49.716;9.212;2022-10-16T14:19:24;2.83;;;1.20;;
24223;SDS011;12359;49.716;9.212;2022-10-16T14:21:52;1.55;;;1.23;;
24223;SDS011;12359;49.716;9.212;2022-10-16T14:24:24;2.65;;;1.75;;
24223;SDS011;12359;49.716;9.212;2022-10-16T14:26:58;6.32;;;1.80;;
24223;SDS011;12359;49.716;9.212;2022-10-16T14:29:26;17.80;;;2.03;;
24223;SDS011;12359;49.716;9.212;2022-10-16T14:31:57;3.92;;;1.77;;
24223;SDS011;12359;49.716;9.212;2022-10-16T14:34:28;2.63;;;2.42;;
24223;SDS011;12359;49.716;9.212;2022-10-16T14:37:44;6.88;;;1.90;;
24223;SDS011;12359;49.716;9.212;2022-10-16T14:39:52;2.42;;;1.75;;
24223;SDS011;12359;49.716;9.212;2022-10-16T14:42:20;4.50;;;1.98;;
24223;SDS011;12359;49.716;9.212;2022-10-16T14:44:49;7.32;;;2.40;;
24223;SDS011;12359;49.716;9.212;2022-10-16T14:47:20;4.45;;;2.08;;
24223;SDS011;12359;49.716;9.212;2022-10-16T14:49:51;3.22;;;1.80;;
24223;SDS011;12359;49.716;9.212;2022-10-16T14:52:18;8.90;;;2.13;;
24223;SDS011;12359;49.716;9.212;2022-10-16T14:54:43;4.80;;;2.40;;
24223;SDS011;12359;49.716;9.212;2022-10-16T14:57:17;3.65;;;1.65;;
24223;SDS011;12359;49.716;9.212;2022-10-16T14:59:45;4.80;;;2.40;;
24223;SDS011;12359;49.716;9.212;2022-10-16T15:02:20;4.97;;;2.03;;
24223;SDS011;12359;49.716;9.212;2022-10-16T15:05:07;1.63;;;1.52;;
24223;SDS011;12359;49.716;9.212;2022-10-16T15:07:41;5.30;;;2.67;;
24223;SDS011;12359;49.716;9.212;2022-10-16T15:10:07;2.95;;;1.60;;
24223;SDS011;12359;49.716;9.212;2022-10-16T15:12:33;5.70;;;2.15;;
24223;SDS011;12359;49.716;9.212;2022-10-16T15:14:59;3.13;;;1.80;;
24223;SDS011;12359;49.716;9.212;2022-10-16T15:17:25;5.78;;;2.10;;
24223;SDS011;12359;49.716;9.212;2022-10-16T15:19:50;3.10;;;1.85;;
24223;SDS011;12359;49.716;9.212;2022-10-16T15:22:16;11.05;;;1.73;;
24223;SDS011;12359;49.716;9.212;2022-10-16T15:24:43;4.35;;;1.73;;
24223;SDS011;12359;49.716;9.212;2022-10-16T15:27:08;1.80;;;1.70;;
24223;SDS011;12359;49.716;9.212;2022-10-16T15:29:34;3.85;;;2.22;;
24223;SDS011;12359;49.716;9.212;2022-10-16T15:32:00;6.57;;;2.00;;
24223;SDS011;12359;49.716;9.212;2022-10-16T15:34:25;5.20;;;2.08;;
24223;SDS011;12359;49.716;9.212;2022-10-16T15:36:51;4.70;;;1.80;;
24223;SDS011;12359;49.716;9.212;2022-10-16T15:39:18;3.47;;;2.00;;
24223;SDS011;12359;49.716;9.212;2022-10-16T15:41:45;3.28;;;2.03;;
24223;SDS011;12359;49.716;9.212;2022-10-16T15:44:19;2.25;;;1.75;;
24223;SDS011;12359;49.716;9.212;2022-10-16T15:46:46;11.77;;;2.10;;
24223;SDS011;12359;49.716;9.212;2022-10-16T15:49:12;2.95;;;2.33;;
24223;SDS011;12359;49.716;9.212;2022-10-16T15:51:38;7.60;;;2.92;;
24223;SDS011;12359;49.716;9.212;2022-10-16T15:54:05;6.95;;;2.78;;
24223;SDS011;12359;49.716;9.212;2022-10-16T15:56:31;4.82;;;2.05;;
24223;SDS011;12359;49.716;9.212;2022-10-16T15:58:58;8.75;;;2.72;;
24223;SDS011;12359;49.716;9.212;2022-10-16T16:01:25;5.97;;;2.42;;
24223;SDS011;12359;49.716;9.212;2022-10-16T16:03:54;10.27;;;2.38;;
24223;SDS011;12359;49.716;9.212;2022-10-16T16:06:20;3.83;;;2.45;;
24223;SDS011;12359;49.716;9.212;2022-10-16T16:08:48;8.07;;;2.75;;
24223;SDS011;12359;49.716;9.212;2022-10-16T16:11:15;7.43;;;2.80;;
24223;SDS011;12359;49.716;9.212;2022-10-16T16:13:42;6.63;;;3.30;;
24223;SDS011;12359;49.716;9.212;2022-10-16T16:16:09;8.00;;;3.45;;
24223;SDS011;12359;49.716;9.212;2022-10-16T16:18:39;4.28;;;2.65;;
24223;SDS011;12359;49.716;9.212;2022-10-16T16:21:05;5.82;;;2.20;;
24223;SDS011;12359;49.716;9.212;2022-10-16T16:23:31;4.05;;;2.30;;
24223;SDS011;12359;49.716;9.212;2022-10-16T16:26:04;4.22;;;2.92;;
24223;SDS011;12359;49.716;9.212;2022-10-16T16:28:38;4.43;;;2.30;;
24223;SDS011;12359;49.716;9.212;2022-10-16T16:31:04;3.53;;;2.40;;
24223;SDS011;12359;49.716;9.212;2022-10-16T16:33:33;3.97;;;2.63;;
24223;SDS011;12359;49.716;9.212;2022-10-16T16:36:00;5.13;;;2.63;;
24223;SDS011;12359;49.716;9.212;2022-10-16T16:38:28;3.85;;;2.63;;
24223;SDS011;12359;49.716;9.212;2022-10-16T16:40:54;4.60;;;2.13;;
24223;SDS011;12359;49.716;9.212;2022-10-16T16:43:29;8.07;;;2.53;;
24223;SDS011;12359;49.716;9.212;2022-10-16T16:45:55;4.90;;;2.45;;
24223;SDS011;12359;49.716;9.212;2022-10-16T16:48:20;4.28;;;2.28;;
24223;SDS011;12359;49.716;9.212;2022-10-16T16:50:47;6.97;;;2.28;;
24223;SDS011;12359;49.716;9.212;2022-10-16T16:53:12;2.70;;;1.92;;
24223;SDS011;12359;49.716;9.212;2022-10-16T16:55:38;2.53;;;1.98;;
24223;SDS011;12359;49.716;9.212;2022-10-16T16:58:04;12.27;;;3.00;;
24223;SDS011;12359;49.716;9.212;2022-10-16T17:00:29;10.98;;;2.90;;
24223;SDS011;12359;49.716;9.212;2022-10-16T17:02:56;6.32;;;3.05;;